Etusivu
METAR-TAF:

METAR-TAF

Lentoasemat :

Hannoverin lentoasema

Hannover, Saksa

Leveyspiiri: 52-28N, Pituuspiiri: 009-41E, korkeus merenpinnasta: 56 m

Tämänhetkinen sää

Tämä raportti tehtiin 34 minuuttia sitten, kello 02.50 UTC
Tuuli 5 kn lännestä/lounaasta
Lämpötila 10°C
Kosteus 87%
Ilmanpaine 1029 hPa
Näkyvyys 10 km tai enemmän
Hajonneita pilviä 4400 ft:n korkeudessa

METAR: EDDV 210250Z 25005KT 9999 BKN044 10/08 Q1029

Aika: 05:24 (03:24 UTC)

Sääennuste

Tämä raportti tehtiin 4 tuntia ja 24 minuuttia sitten, kello 23.00 UTC
Ennuste voimassa 21. päivästä klo 00 UTC - 21. päivään klo 24 UTC
Tuuli 4 kn lännestä/lounaasta
Näkyvyys 10 km tai enemmän
Hajonneita pilviä 4000 ft:n korkeudessa

TAF: EDDV 202300Z 2100/2124 24004KT 9999 BKN040

Säähavainnot ja -ennusteet yli 4000 lentoasemalta (METAR- ja TAF-raportit).

Käytössä olevat sääasemat on merkitty karttaan keltaisilla ja punaisilla pisteillä.

Aseta hiiri pisteen päälle nähdäksesi sääaseman nimen.

Klikkaa sitten nähdäksesi säähavainnot ja -ennusteet.

Kartan vaihtaminen: klikkaa mustalla rastilla varustettuja vihreitä pisteitä, niin voit zoomata sisään; viivalla varustettua vihreää pistettä, niin voit zoomata ulos tai vihreitä nuolia, niin pääset viereisille kartoille.


METAR-TAF: